OPRN/ISB METAR and TAF weather

Enter ICAO airport designator
Station Type Date Time Source
OPRN METAR 2019/10/25 10:00 UTC NOAA

OPRN 251000Z 36006KT 5000 FU NSC 37/17 Q1009 NOSIG


Station Type Date Time Source
OPRN Decoded METAR 2019/10/25 10:00 UTC NOAA

Islamabad Airport, Pakistan (OPRN) 33-37N 073-06E 508M
Oct 25, 2019 - 06:00 AM EDT / 2019.10.25 1000 UTC
Wind: from the N (360 degrees) at 7 MPH (6 KT):0
Visibility: 3 mile(s):0
Weather: smoke
Temperature: 98 F (37 C)
Heat index: 99.0 F (37.2 C):1
Dew Point: 62 F (17 C)
Relative Humidity: 30%
Pressure (altimeter): 29.80 in. Hg (1009 hPa)
ob: OPRN 251000Z 36006KT 5000 FU NSC 37/17 Q1009 NOSIG
cycle: 10

Station Type Date Time Source
OPRN TAF 2019/05/15 18:06 UTC NOAA

TAF OPRN 151530Z 1518/1624 13010KT 7000 SCT040 SCT100
TEMPO 1518/1521 13010G25KT 5000 VCTS FEW030TCU/CB SCT040 BKN100
BECMG 1603/1605 23010KT 9999 FEW040

Example: see airport list